sensor_id;sensor_type;location;lat;lon;timestamp;P1;durP1;ratioP1;P2;durP2;ratioP2
1577;SDS011;57623;53.608;10.004;2023-02-15T00:01:38;49.77;;;30.50;;
1577;SDS011;57623;53.608;10.004;2023-02-15T00:04:11;46.37;;;30.37;;
1577;SDS011;57623;53.608;10.004;2023-02-15T00:06:46;46.70;;;29.87;;
1577;SDS011;57623;53.608;10.004;2023-02-15T00:09:17;48.43;;;29.97;;
1577;SDS011;57623;53.608;10.004;2023-02-15T00:11:45;50.80;;;29.87;;
1577;SDS011;57623;53.608;10.004;2023-02-15T00:14:17;51.17;;;31.10;;
1577;SDS011;57623;53.608;10.004;2023-02-15T00:16:52;45.63;;;28.77;;
1577;SDS011;57623;53.608;10.004;2023-02-15T00:19:29;47.87;;;30.10;;
1577;SDS011;57623;53.608;10.004;2023-02-15T00:21:59;49.47;;;30.10;;
1577;SDS011;57623;53.608;10.004;2023-02-15T00:24:27;49.73;;;30.00;;
1577;SDS011;57623;53.608;10.004;2023-02-15T00:27:01;49.27;;;29.00;;
1577;SDS011;57623;53.608;10.004;2023-02-15T00:29:30;47.40;;;30.80;;
1577;SDS011;57623;53.608;10.004;2023-02-15T00:32:03;49.60;;;30.03;;
1577;SDS011;57623;53.608;10.004;2023-02-15T00:34:40;46.73;;;29.77;;
1577;SDS011;57623;53.608;10.004;2023-02-15T00:37:11;47.60;;;29.70;;
1577;SDS011;57623;53.608;10.004;2023-02-15T00:39:39;50.03;;;31.93;;
1577;SDS011;57623;53.608;10.004;2023-02-15T00:42:13;55.57;;;30.17;;
1577;SDS011;57623;53.608;10.004;2023-02-15T00:44:42;54.80;;;30.23;;
1577;SDS011;57623;53.608;10.004;2023-02-15T00:47:13;47.60;;;28.33;;
1577;SDS011;57623;53.608;10.004;2023-02-15T00:49:42;48.37;;;29.43;;
1577;SDS011;57623;53.608;10.004;2023-02-15T00:52:12;47.50;;;29.13;;
1577;SDS011;57623;53.608;10.004;2023-02-15T00:54:41;42.57;;;28.00;;
1577;SDS011;57623;53.608;10.004;2023-02-15T00:57:11;51.10;;;29.17;;
1577;SDS011;57623;53.608;10.004;2023-02-15T00:59:44;50.73;;;29.37;;
1577;SDS011;57623;53.608;10.004;2023-02-15T01:02:12;50.00;;;30.43;;
1577;SDS011;57623;53.608;10.004;2023-02-15T01:04:47;47.07;;;29.70;;
1577;SDS011;57623;53.608;10.004;2023-02-15T01:07:18;53.67;;;29.93;;
1577;SDS011;57623;53.608;10.004;2023-02-15T01:09:47;51.13;;;30.60;;
1577;SDS011;57623;53.608;10.004;2023-02-15T01:12:19;53.10;;;30.53;;
1577;SDS011;57623;53.608;10.004;2023-02-15T01:14:57;52.00;;;31.13;;
1577;SDS011;57623;53.608;10.004;2023-02-15T01:17:30;62.97;;;34.70;;
1577;SDS011;57623;53.608;10.004;2023-02-15T01:20:00;62.77;;;34.33;;
1577;SDS011;57623;53.608;10.004;2023-02-15T01:22:31;60.70;;;36.50;;
1577;SDS011;57623;53.608;10.004;2023-02-15T01:25:01;68.90;;;38.33;;
1577;SDS011;57623;53.608;10.004;2023-02-15T01:27:34;77.60;;;40.60;;
1577;SDS011;57623;53.608;10.004;2023-02-15T01:30:11;65.93;;;41.47;;
1577;SDS011;57623;53.608;10.004;2023-02-15T01:32:45;63.23;;;38.10;;
1577;SDS011;57623;53.608;10.004;2023-02-15T01:35:16;64.27;;;39.60;;
1577;SDS011;57623;53.608;10.004;2023-02-15T01:37:48;66.63;;;38.57;;
1577;SDS011;57623;53.608;10.004;2023-02-15T01:40:25;61.80;;;38.40;;
1577;SDS011;57623;53.608;10.004;2023-02-15T01:42:56;66.90;;;38.80;;
1577;SDS011;57623;53.608;10.004;2023-02-15T01:45:27;63.13;;;38.77;;
1577;SDS011;57623;53.608;10.004;2023-02-15T01:47:58;63.90;;;37.30;;
1577;SDS011;57623;53.608;10.004;2023-02-15T01:50:36;59.63;;;33.20;;
1577;SDS011;57623;53.608;10.004;2023-02-15T01:53:07;55.73;;;33.30;;
1577;SDS011;57623;53.608;10.004;2023-02-15T01:55:40;48.20;;;30.60;;
1577;SDS011;57623;53.608;10.004;2023-02-15T01:58:13;53.50;;;30.33;;
1577;SDS011;57623;53.608;10.004;2023-02-15T02:00:50;47.13;;;28.43;;
1577;SDS011;57623;53.608;10.004;2023-02-15T02:03:30;47.57;;;30.37;;
1577;SDS011;57623;53.608;10.004;2023-02-15T02:06:20;47.63;;;29.07;;
1577;SDS011;57623;53.608;10.004;2023-02-15T05:21:04;42.30;;;24.43;;
1577;SDS011;57623;53.608;10.004;2023-02-15T05:23:36;44.20;;;26.10;;
1577;SDS011;57623;53.608;10.004;2023-02-15T05:26:15;37.33;;;23.87;;
1577;SDS011;57623;53.608;10.004;2023-02-15T05:29:02;38.87;;;24.40;;
1577;SDS011;57623;53.608;10.004;2023-02-15T05:31:34;37.23;;;24.47;;
1577;SDS011;57623;53.608;10.004;2023-02-15T05:34:08;42.30;;;25.67;;
1577;SDS011;57623;53.608;10.004;2023-02-15T05:36:40;39.97;;;24.33;;
1577;SDS011;57623;53.608;10.004;2023-02-15T05:39:10;38.23;;;24.50;;
1577;SDS011;57623;53.608;10.004;2023-02-15T05:41:38;42.90;;;25.80;;
1577;SDS011;57623;53.608;10.004;2023-02-15T05:54:54;36.47;;;23.90;;
1577;SDS011;57623;53.608;10.004;2023-02-15T05:57:26;39.10;;;24.00;;
1577;SDS011;57623;53.608;10.004;2023-02-15T05:59:57;42.23;;;25.20;;
1577;SDS011;57623;53.608;10.004;2023-02-15T06:02:29;39.07;;;23.90;;
1577;SDS011;57623;53.608;10.004;2023-02-15T06:04:57;40.93;;;25.73;;
1577;SDS011;57623;53.608;10.004;2023-02-15T06:07:33;40.37;;;25.47;;
1577;SDS011;57623;53.608;10.004;2023-02-15T06:10:06;45.97;;;24.93;;
1577;SDS011;57623;53.608;10.004;2023-02-15T06:12:40;38.20;;;25.63;;
1577;SDS011;57623;53.608;10.004;2023-02-15T06:15:10;35.77;;;24.10;;
1577;SDS011;57623;53.608;10.004;2023-02-15T06:17:42;42.20;;;25.83;;
1577;SDS011;57623;53.608;10.004;2023-02-15T06:20:13;39.17;;;24.37;;
1577;SDS011;57623;53.608;10.004;2023-02-15T06:22:48;38.13;;;23.37;;
1577;SDS011;57623;53.608;10.004;2023-02-15T06:25:23;41.13;;;24.17;;
1577;SDS011;57623;53.608;10.004;2023-02-15T06:27:56;40.00;;;24.20;;
1577;SDS011;57623;53.608;10.004;2023-02-15T06:30:24;41.57;;;25.43;;
1577;SDS011;57623;53.608;10.004;2023-02-15T06:32:54;41.03;;;24.37;;
1577;SDS011;57623;53.608;10.004;2023-02-15T06:35:29;41.57;;;25.47;;
1577;SDS011;57623;53.608;10.004;2023-02-15T06:38:02;42.33;;;25.20;;
1577;SDS011;57623;53.608;10.004;2023-02-15T06:40:34;41.60;;;25.47;;
1577;SDS011;57623;53.608;10.004;2023-02-15T06:43:19;41.23;;;25.60;;
1577;SDS011;57623;53.608;10.004;2023-02-15T06:45:57;41.73;;;24.50;;
1577;SDS011;57623;53.608;10.004;2023-02-15T06:48:29;37.37;;;24.07;;
1577;SDS011;57623;53.608;10.004;2023-02-15T06:50:59;39.43;;;25.53;;
1577;SDS011;57623;53.608;10.004;2023-02-15T06:53:30;43.60;;;25.27;;
1577;SDS011;57623;53.608;10.004;2023-02-15T06:56:11;39.67;;;25.90;;
1577;SDS011;57623;53.608;10.004;2023-02-15T06:58:42;36.90;;;23.33;;
1577;SDS011;57623;53.608;10.004;2023-02-15T07:01:15;39.87;;;24.63;;
1577;SDS011;57623;53.608;10.004;2023-02-15T07:04:10;43.97;;;25.40;;
1577;SDS011;57623;53.608;10.004;2023-02-15T07:06:43;39.20;;;24.63;;
1577;SDS011;57623;53.608;10.004;2023-02-15T07:09:16;40.73;;;24.93;;
1577;SDS011;57623;53.608;10.004;2023-02-15T07:11:52;37.70;;;24.20;;
1577;SDS011;57623;53.608;10.004;2023-02-15T07:14:44;41.87;;;24.80;;
1577;SDS011;57623;53.608;10.004;2023-02-15T07:17:14;39.60;;;24.17;;
1577;SDS011;57623;53.608;10.004;2023-02-15T07:20:02;40.10;;;24.93;;
1577;SDS011;57623;53.608;10.004;2023-02-15T07:22:31;35.70;;;24.10;;
1577;SDS011;57623;53.608;10.004;2023-02-15T07:25:00;40.33;;;24.43;;
1577;SDS011;57623;53.608;10.004;2023-02-15T07:27:42;39.50;;;26.17;;
1577;SDS011;57623;53.608;10.004;2023-02-15T07:30:12;39.53;;;24.43;;
1577;SDS011;57623;53.608;10.004;2023-02-15T07:32:44;37.90;;;24.60;;
1577;SDS011;57623;53.608;10.004;2023-02-15T09:17:06;43.23;;;27.57;;
1577;SDS011;57623;53.608;10.004;2023-02-15T09:19:40;40.03;;;26.37;;
1577;SDS011;57623;53.608;10.004;2023-02-15T09:22:13;45.80;;;27.10;;
1577;SDS011;57623;53.608;10.004;2023-02-15T09:24:45;39.37;;;26.13;;
1577;SDS011;57623;53.608;10.004;2023-02-15T09:27:13;40.33;;;26.50;;
1577;SDS011;57623;53.608;10.004;2023-02-15T09:29:44;47.10;;;28.30;;
1577;SDS011;57623;53.608;10.004;2023-02-15T09:32:17;47.30;;;28.73;;
1577;SDS011;57623;53.608;10.004;2023-02-15T09:34:49;43.23;;;27.60;;
1577;SDS011;57623;53.608;10.004;2023-02-15T09:37:18;43.87;;;27.90;;
1577;SDS011;57623;53.608;10.004;2023-02-15T09:39:51;46.93;;;29.80;;
1577;SDS011;57623;53.608;10.004;2023-02-15T09:42:26;43.43;;;27.77;;
1577;SDS011;57623;53.608;10.004;2023-02-15T09:45:13;39.20;;;26.50;;
1577;SDS011;57623;53.608;10.004;2023-02-15T09:48:12;39.83;;;26.73;;
1577;SDS011;57623;53.608;10.004;2023-02-15T09:51:01;39.10;;;25.57;;
1577;SDS011;57623;53.608;10.004;2023-02-15T09:53:56;42.13;;;26.70;;
1577;SDS011;57623;53.608;10.004;2023-02-15T09:56:36;40.90;;;26.10;;
1577;SDS011;57623;53.608;10.004;2023-02-15T09:59:19;44.30;;;27.77;;
1577;SDS011;57623;53.608;10.004;2023-02-15T10:01:59;37.60;;;25.43;;
1577;SDS011;57623;53.608;10.004;2023-02-15T10:04:54;41.03;;;25.83;;
1577;SDS011;57623;53.608;10.004;2023-02-15T10:07:41;41.10;;;26.33;;
1577;SDS011;57623;53.608;10.004;2023-02-15T10:10:31;39.20;;;25.40;;
1577;SDS011;57623;53.608;10.004;2023-02-15T10:13:15;40.03;;;25.80;;
1577;SDS011;57623;53.608;10.004;2023-02-15T10:16:04;43.13;;;26.67;;
1577;SDS011;57623;53.608;10.004;2023-02-15T10:18:53;41.43;;;27.80;;
1577;SDS011;57623;53.608;10.004;2023-02-15T10:21:33;42.10;;;27.30;;
1577;SDS011;57623;53.608;10.004;2023-02-15T10:24:17;45.23;;;28.20;;
1577;SDS011;57623;53.608;10.004;2023-02-15T10:27:12;40.90;;;27.63;;
1577;SDS011;57623;53.608;10.004;2023-02-15T10:29:44;43.07;;;27.37;;
1577;SDS011;57623;53.608;10.004;2023-02-15T10:32:25;44.30;;;27.93;;
1577;SDS011;57623;53.608;10.004;2023-02-15T10:35:00;37.63;;;25.87;;
1577;SDS011;57623;53.608;10.004;2023-02-15T10:37:49;43.40;;;28.40;;
1577;SDS011;57623;53.608;10.004;2023-02-15T10:40:29;46.40;;;29.67;;
1577;SDS011;57623;53.608;10.004;2023-02-15T10:43:17;45.13;;;28.80;;
1577;SDS011;57623;53.608;10.004;2023-02-15T10:45:58;43.97;;;28.27;;
1577;SDS011;57623;53.608;10.004;2023-02-15T10:48:41;45.47;;;29.10;;
1577;SDS011;57623;53.608;10.004;2023-02-15T10:51:28;45.27;;;29.67;;
1577;SDS011;57623;53.608;10.004;2023-02-15T10:54:15;44.57;;;29.60;;
1577;SDS011;57623;53.608;10.004;2023-02-15T10:56:55;44.13;;;28.47;;
1577;SDS011;57623;53.608;10.004;2023-02-15T10:59:40;46.57;;;30.40;;
1577;SDS011;57623;53.608;10.004;2023-02-15T11:02:31;46.13;;;29.87;;
1577;SDS011;57623;53.608;10.004;2023-02-15T11:05:34;47.00;;;28.53;;
1577;SDS011;57623;53.608;10.004;2023-02-15T11:08:10;47.17;;;30.30;;
1577;SDS011;57623;53.608;10.004;2023-02-15T11:10:44;47.03;;;31.30;;
1577;SDS011;57623;53.608;10.004;2023-02-15T11:13:19;42.93;;;30.07;;
1577;SDS011;57623;53.608;10.004;2023-02-15T11:16:02;50.23;;;32.37;;
1577;SDS011;57623;53.608;10.004;2023-02-15T11:18:39;50.13;;;30.80;;
1577;SDS011;57623;53.608;10.004;2023-02-15T11:21:12;43.20;;;29.57;;
1577;SDS011;57623;53.608;10.004;2023-02-15T11:23:50;45.60;;;30.43;;
1577;SDS011;57623;53.608;10.004;2023-02-15T11:26:26;46.30;;;31.63;;
1577;SDS011;57623;53.608;10.004;2023-02-15T11:29:05;48.83;;;31.50;;
1577;SDS011;57623;53.608;10.004;2023-02-15T11:31:46;46.10;;;30.43;;
1577;SDS011;57623;53.608;10.004;2023-02-15T11:34:21;42.87;;;30.20;;
1577;SDS011;57623;53.608;10.004;2023-02-15T11:36:57;42.83;;;30.73;;
1577;SDS011;57623;53.608;10.004;2023-02-15T11:39:29;41.77;;;30.17;;
1577;SDS011;57623;53.608;10.004;2023-02-15T11:42:06;42.27;;;28.73;;
1577;SDS011;57623;53.608;10.004;2023-02-15T11:44:41;43.13;;;29.00;;
1577;SDS011;57623;53.608;10.004;2023-02-15T11:47:25;39.37;;;30.10;;
1577;SDS011;57623;53.608;10.004;2023-02-15T11:49:56;38.97;;;29.03;;
1577;SDS011;57623;53.608;10.004;2023-02-15T11:52:29;38.70;;;29.23;;
1577;SDS011;57623;53.608;10.004;2023-02-15T11:55:09;42.33;;;30.40;;
1577;SDS011;57623;53.608;10.004;2023-02-15T11:57:44;39.83;;;28.40;;
1577;SDS011;57623;53.608;10.004;2023-02-15T12:00:20;36.80;;;28.33;;
1577;SDS011;57623;53.608;10.004;2023-02-15T12:03:07;38.03;;;28.40;;
1577;SDS011;57623;53.608;10.004;2023-02-15T12:05:40;36.57;;;27.50;;
1577;SDS011;57623;53.608;10.004;2023-02-15T12:08:13;31.70;;;27.40;;
1577;SDS011;57623;53.608;10.004;2023-02-15T12:11:03;31.47;;;27.13;;
1577;SDS011;57623;53.608;10.004;2023-02-15T12:13:49;29.57;;;26.53;;
1577;SDS011;57623;53.608;10.004;2023-02-15T12:16:27;30.77;;;27.57;;
1577;SDS011;57623;53.608;10.004;2023-02-15T12:18:59;31.67;;;28.43;;
1577;SDS011;57623;53.608;10.004;2023-02-15T12:21:38;30.40;;;27.40;;
1577;SDS011;57623;53.608;10.004;2023-02-15T12:24:11;30.00;;;27.20;;
1577;SDS011;57623;53.608;10.004;2023-02-15T12:26:59;30.57;;;27.63;;
1577;SDS011;57623;53.608;10.004;2023-02-15T12:29:39;30.67;;;27.70;;
1577;SDS011;57623;53.608;10.004;2023-02-15T12:32:16;29.20;;;26.70;;
1577;SDS011;57623;53.608;10.004;2023-02-15T12:34:46;29.57;;;27.13;;
1577;SDS011;57623;53.608;10.004;2023-02-15T18:22:18;28.33;;;23.23;;
1577;SDS011;57623;53.608;10.004;2023-02-15T18:25:11;27.80;;;22.70;;
1577;SDS011;57623;53.608;10.004;2023-02-15T18:27:40;28.40;;;23.73;;
1577;SDS011;57623;53.608;10.004;2023-02-15T18:30:12;28.50;;;21.60;;
1577;SDS011;57623;53.608;10.004;2023-02-15T18:32:53;63.80;;;35.20;;
1577;SDS011;57623;53.608;10.004;2023-02-15T18:35:27;33.47;;;25.00;;
1577;SDS011;57623;53.608;10.004;2023-02-15T18:38:08;29.90;;;25.27;;
1577;SDS011;57623;53.608;10.004;2023-02-15T18:40:41;29.33;;;24.67;;
1577;SDS011;57623;53.608;10.004;2023-02-15T18:43:11;30.80;;;25.30;;
1577;SDS011;57623;53.608;10.004;2023-02-15T18:45:48;30.30;;;24.77;;
1577;SDS011;57623;53.608;10.004;2023-02-15T18:48:21;30.00;;;25.57;;
1577;SDS011;57623;53.608;10.004;2023-02-15T18:50:49;31.40;;;25.70;;
1577;SDS011;57623;53.608;10.004;2023-02-15T18:53:26;29.80;;;25.50;;
1577;SDS011;57623;53.608;10.004;2023-02-15T18:55:56;32.37;;;25.33;;
1577;SDS011;57623;53.608;10.004;2023-02-15T18:58:30;32.10;;;25.60;;
1577;SDS011;57623;53.608;10.004;2023-02-15T19:01:01;31.50;;;24.77;;
1577;SDS011;57623;53.608;10.004;2023-02-15T19:03:41;29.33;;;25.43;;
1577;SDS011;57623;53.608;10.004;2023-02-15T19:06:16;31.60;;;25.83;;
1577;SDS011;57623;53.608;10.004;2023-02-15T19:08:51;29.37;;;24.30;;
1577;SDS011;57623;53.608;10.004;2023-02-15T19:11:24;31.13;;;24.80;;
1577;SDS011;57623;53.608;10.004;2023-02-15T19:14:07;31.77;;;26.33;;
1577;SDS011;57623;53.608;10.004;2023-02-15T19:16:58;29.83;;;24.20;;
1577;SDS011;57623;53.608;10.004;2023-02-15T19:19:40;30.17;;;25.07;;
1577;SDS011;57623;53.608;10.004;2023-02-15T19:22:12;32.13;;;25.40;;
1577;SDS011;57623;53.608;10.004;2023-02-15T19:24:50;31.53;;;25.37;;
1577;SDS011;57623;53.608;10.004;2023-02-15T19:27:21;33.37;;;26.57;;
1577;SDS011;57623;53.608;10.004;2023-02-15T19:29:55;29.90;;;24.80;;
1577;SDS011;57623;53.608;10.004;2023-02-15T19:32:26;30.30;;;25.40;;
1577;SDS011;57623;53.608;10.004;2023-02-15T19:35:03;27.80;;;23.20;;
1577;SDS011;57623;53.608;10.004;2023-02-15T19:37:45;29.57;;;23.77;;
1577;SDS011;57623;53.608;10.004;2023-02-15T19:40:28;29.30;;;24.00;;
1577;SDS011;57623;53.608;10.004;2023-02-15T19:42:58;31.27;;;24.70;;
1577;SDS011;57623;53.608;10.004;2023-02-15T19:45:48;31.20;;;24.83;;
1577;SDS011;57623;53.608;10.004;2023-02-15T19:48:27;31.77;;;25.50;;
1577;SDS011;57623;53.608;10.004;2023-02-15T19:50:57;31.10;;;24.20;;
1577;SDS011;57623;53.608;10.004;2023-02-15T19:53:33;29.70;;;24.47;;
1577;SDS011;57623;53.608;10.004;2023-02-15T19:56:09;28.17;;;23.10;;
1577;SDS011;57623;53.608;10.004;2023-02-15T19:58:40;31.37;;;24.83;;
1577;SDS011;57623;53.608;10.004;2023-02-15T20:01:13;29.10;;;23.70;;
1577;SDS011;57623;53.608;10.004;2023-02-15T20:03:49;31.67;;;24.00;;
1577;SDS011;57623;53.608;10.004;2023-02-15T20:06:19;32.33;;;25.20;;
1577;SDS011;57623;53.608;10.004;2023-02-15T20:08:50;32.27;;;25.97;;
1577;SDS011;57623;53.608;10.004;2023-02-15T20:11:22;30.63;;;24.70;;
1577;SDS011;57623;53.608;10.004;2023-02-15T20:32:58;32.87;;;24.20;;
1577;SDS011;57623;53.608;10.004;2023-02-15T20:35:30;32.23;;;25.53;;
1577;SDS011;57623;53.608;10.004;2023-02-15T20:38:10;32.40;;;25.10;;
1577;SDS011;57623;53.608;10.004;2023-02-15T20:45:12;32.73;;;24.33;;
1577;SDS011;57623;53.608;10.004;2023-02-15T20:47:37;32.03;;;25.50;;
1577;SDS011;57623;53.608;10.004;2023-02-15T20:53:49;30.97;;;24.43;;
1577;SDS011;57623;53.608;10.004;2023-02-15T20:57:04;34.63;;;24.90;;
1577;SDS011;57623;53.608;10.004;2023-02-15T21:00:11;35.50;;;25.10;;
1577;SDS011;57623;53.608;10.004;2023-02-15T21:03:36;34.37;;;25.77;;
1577;SDS011;57623;53.608;10.004;2023-02-15T21:10:23;30.40;;;24.50;;
1577;SDS011;57623;53.608;10.004;2023-02-15T21:13:11;29.30;;;23.20;;
1577;SDS011;57623;53.608;10.004;2023-02-15T21:16:37;30.07;;;23.47;;
1577;SDS011;57623;53.608;10.004;2023-02-15T21:22:51;31.60;;;23.80;;
1577;SDS011;57623;53.608;10.004;2023-02-15T21:25:34;33.90;;;24.67;;
1577;SDS011;57623;53.608;10.004;2023-02-15T21:28:32;30.57;;;24.57;;
1577;SDS011;57623;53.608;10.004;2023-02-15T21:31:27;34.23;;;25.00;;
1577;SDS011;57623;53.608;10.004;2023-02-15T21:34:22;31.57;;;23.87;;
1577;SDS011;57623;53.608;10.004;2023-02-15T21:37:15;33.27;;;25.33;;
1577;SDS011;57623;53.608;10.004;2023-02-15T21:40:26;34.23;;;24.70;;
1577;SDS011;57623;53.608;10.004;2023-02-15T21:43:10;28.70;;;23.20;;
1577;SDS011;57623;53.608;10.004;2023-02-15T21:46:09;30.37;;;24.20;;
1577;SDS011;57623;53.608;10.004;2023-02-15T21:49:16;29.33;;;23.07;;
1577;SDS011;57623;53.608;10.004;2023-02-15T21:51:50;30.07;;;23.97;;
1577;SDS011;57623;53.608;10.004;2023-02-15T21:54:42;29.10;;;22.83;;
1577;SDS011;57623;53.608;10.004;2023-02-15T22:01:29;30.20;;;23.20;;
1577;SDS011;57623;53.608;10.004;2023-02-15T22:04:32;28.70;;;22.93;;
1577;SDS011;57623;53.608;10.004;2023-02-15T22:07:09;29.87;;;23.47;;
1577;SDS011;57623;53.608;10.004;2023-02-15T22:09:50;28.03;;;22.83;;
1577;SDS011;57623;53.608;10.004;2023-02-15T22:12:23;32.70;;;24.27;;
1577;SDS011;57623;53.608;10.004;2023-02-15T22:15:03;30.03;;;23.60;;
1577;SDS011;57623;53.608;10.004;2023-02-15T22:17:36;31.00;;;23.63;;
1577;SDS011;57623;53.608;10.004;2023-02-15T22:20:08;29.67;;;23.60;;
1577;SDS011;57623;53.608;10.004;2023-02-15T22:22:45;27.60;;;22.77;;
1577;SDS011;57623;53.608;10.004;2023-02-15T22:25:35;32.10;;;25.00;;
1577;SDS011;57623;53.608;10.004;2023-02-15T22:28:14;28.77;;;22.90;;
1577;SDS011;57623;53.608;10.004;2023-02-15T22:31:00;32.33;;;23.13;;
1577;SDS011;57623;53.608;10.004;2023-02-15T22:33:35;29.00;;;24.33;;
1577;SDS011;57623;53.608;10.004;2023-02-15T22:36:21;30.93;;;24.17;;
1577;SDS011;57623;53.608;10.004;2023-02-15T22:39:06;30.37;;;23.20;;
1577;SDS011;57623;53.608;10.004;2023-02-15T22:41:40;33.30;;;25.00;;
1577;SDS011;57623;53.608;10.004;2023-02-15T22:44:32;29.17;;;23.43;;
1577;SDS011;57623;53.608;10.004;2023-02-15T22:47:24;32.83;;;25.80;;
1577;SDS011;57623;53.608;10.004;2023-02-15T22:50:24;27.43;;;22.17;;
1577;SDS011;57623;53.608;10.004;2023-02-15T22:53:24;29.33;;;22.67;;
1577;SDS011;57623;53.608;10.004;2023-02-15T22:55:59;31.80;;;24.53;;
1577;SDS011;57623;53.608;10.004;2023-02-15T22:58:32;29.77;;;22.93;;
1577;SDS011;57623;53.608;10.004;2023-02-15T23:01:12;28.43;;;22.80;;
1577;SDS011;57623;53.608;10.004;2023-02-15T23:04:13;28.10;;;22.27;;
1577;SDS011;57623;53.608;10.004;2023-02-15T23:06:50;29.37;;;22.23;;
1577;SDS011;57623;53.608;10.004;2023-02-15T23:09:25;32.30;;;23.13;;
1577;SDS011;57623;53.608;10.004;2023-02-15T23:12:05;30.80;;;22.50;;
1577;SDS011;57623;53.608;10.004;2023-02-15T23:15:34;31.73;;;24.00;;
1577;SDS011;57623;53.608;10.004;2023-02-15T23:18:35;29.73;;;22.30;;
1577;SDS011;57623;53.608;10.004;2023-02-15T23:24:27;31.03;;;23.20;;
1577;SDS011;57623;53.608;10.004;2023-02-15T23:27:27;26.80;;;21.80;;
1577;SDS011;57623;53.608;10.004;2023-02-15T23:30:39;27.63;;;21.30;;
1577;SDS011;57623;53.608;10.004;2023-02-15T23:33:28;30.93;;;24.00;;
1577;SDS011;57623;53.608;10.004;2023-02-15T23:36:03;28.00;;;22.47;;
1577;SDS011;57623;53.608;10.004;2023-02-15T23:38:38;26.20;;;21.50;;
1577;SDS011;57623;53.608;10.004;2023-02-15T23:41:35;31.63;;;24.27;;
1577;SDS011;57623;53.608;10.004;2023-02-15T23:44:35;27.47;;;21.90;;
1577;SDS011;57623;53.608;10.004;2023-02-15T23:47:27;29.47;;;22.87;;
1577;SDS011;57623;53.608;10.004;2023-02-15T23:50:20;28.47;;;22.47;;
1577;SDS011;57623;53.608;10.004;2023-02-15T23:52:54;27.30;;;22.60;;
1577;SDS011;57623;53.608;10.004;2023-02-15T23:58:34;25.87;;;22.00;;
